Aérodrome :
LOGIN :

S'inscrire | Disclaimer

   EN    FR    IT 

 










Légende :    VFR   VFR Marginal   IFR   IFR Intensif   IFR Très Intensif
Visi : 
Plafond : 
>= 8 km
>= 3000ft
5 à 8 km
1000 à 3000 ft
1500m à 5 km
500 à 1000 ft
800 à 1500m
200 à 500 ft
< 800m
< 200 ft
Symboles :   Orages  Brouillard  Fortes neiges  Fortes précipitations  Vent > 20 kt
SIGMETs :   Divers  Orages  Givrage  Turbulence  Onde Orograph.  Cendres Volcan.






- Altitude de l'aérodrome : 306 ft
- Code IATA : EMA


EGNX - Nottingham East Midlands

DERNIER METAR :
  • 161020Z 20010KT CAVOK 05/03 Q0999

METARs EXPIRÉS :
  • 160950Z 20010KT CAVOK 05/03 Q0999
  • 160920Z 21011KT CAVOK 05/03 Q0998
  • 160850Z 21011KT CAVOK 04/03 Q0998
  • 160820Z 21012KT 9999 FEW035 05/03 Q0997
  • 160750Z 20013KT CAVOK 04/03 Q0997

TAF TAF EGNX
Valide du 16 à 06h jusqu'au 17 à 06h UTC


160502Z 1606/1706 20013KT 9999 FEW045
BECMG 1620/1623 VRB03KT 7000
PROB30 1621/1624 4000 BR
BECMG 1700/1703 3000 BR
PROB30 1700/1706 0100 FG FZFG VV///
ATIS : +44 1332 852 852 (ext 3201)



MET'MAP, la Météo Aéronautique d'un coup d'oeil ! - Copyright ORBIFLY Décembre 2007 - Disclaimer

ORBIFLY MET'MAP TEAM :

Programmation & Développement : Alexandra Zaïnal
Sur une idée originale de : Baudouin d'Aumeries
Assistance à la programmation : Marc-Olivier Méhu
Soutien technique & logistique : Manuel Goepfert

Contact : metmap@orbifly.com




SOURCES & CREDITS :

   NOAA